sensor_id;sensor_type;location;lat;lon;timestamp;P1;P2;P0
72329;PMS5003;69154;52.076;5.110;2023-07-09T00:01:50;22;21;
72329;PMS5003;69154;52.076;5.110;2023-07-09T00:04:15;26;23;
72329;PMS5003;69154;52.076;5.110;2023-07-09T00:06:40;24;23;
72329;PMS5003;69154;52.076;5.110;2023-07-09T00:09:06;22;22;
72329;PMS5003;69154;52.076;5.110;2023-07-09T00:11:32;22;22;
72329;PMS5003;69154;52.076;5.110;2023-07-09T00:13:57;22;21;
72329;PMS5003;69154;52.076;5.110;2023-07-09T00:16:23;24;24;
72329;PMS5003;69154;52.076;5.110;2023-07-09T00:18:48;20;20;
72329;PMS5003;69154;52.076;5.110;2023-07-09T00:21:13;23;23;
72329;PMS5003;69154;52.076;5.110;2023-07-09T00:23:39;20;18;
72329;PMS5003;69154;52.076;5.110;2023-07-09T00:26:07;23;22;
72329;PMS5003;69154;52.076;5.110;2023-07-09T00:28:35;23;23;
72329;PMS5003;69154;52.076;5.110;2023-07-09T00:30:55;25;25;
72329;PMS5003;69154;52.076;5.110;2023-07-09T00:33:21;22;22;
72329;PMS5003;69154;52.076;5.110;2023-07-09T00:35:47;22;22;
72329;PMS5003;69154;52.076;5.110;2023-07-09T00:38:13;26;25;
72329;PMS5003;69154;52.076;5.110;2023-07-09T00:40:37;22;21;
72329;PMS5003;69154;52.076;5.110;2023-07-09T00:43:02;25;24;
72329;PMS5003;69154;52.076;5.110;2023-07-09T00:45:29;26;25;
72329;PMS5003;69154;52.076;5.110;2023-07-09T00:47:54;23;23;
72329;PMS5003;69154;52.076;5.110;2023-07-09T00:50:29;24;23;
72329;PMS5003;69154;52.076;5.110;2023-07-09T00:52:46;27;26;
72329;PMS5003;69154;52.076;5.110;2023-07-09T00:55:10;23;23;
72329;PMS5003;69154;52.076;5.110;2023-07-09T00:57:35;19;18;
72329;PMS5003;69154;52.076;5.110;2023-07-09T01:00:03;25;25;
72329;PMS5003;69154;52.076;5.110;2023-07-09T01:02:25;28;27;
72329;PMS5003;69154;52.076;5.110;2023-07-09T01:04:51;23;23;
72329;PMS5003;69154;52.076;5.110;2023-07-09T01:07:16;24;24;
72329;PMS5003;69154;52.076;5.110;2023-07-09T01:09:42;28;26;
72329;PMS5003;69154;52.076;5.110;2023-07-09T01:12:08;24;23;
72329;PMS5003;69154;52.076;5.110;2023-07-09T01:14:32;25;24;
72329;PMS5003;69154;52.076;5.110;2023-07-09T01:17:00;22;22;
72329;PMS5003;69154;52.076;5.110;2023-07-09T01:19:24;24;24;
72329;PMS5003;69154;52.076;5.110;2023-07-09T01:21:50;26;25;
72329;PMS5003;69154;52.076;5.110;2023-07-09T01:24:15;29;28;
72329;PMS5003;69154;52.076;5.110;2023-07-09T01:26:40;27;27;
72329;PMS5003;69154;52.076;5.110;2023-07-09T01:29:06;24;23;
72329;PMS5003;69154;52.076;5.110;2023-07-09T01:31:31;29;27;
72329;PMS5003;69154;52.076;5.110;2023-07-09T01:33:57;26;25;
72329;PMS5003;69154;52.076;5.110;2023-07-09T01:36:22;21;20;
72329;PMS5003;69154;52.076;5.110;2023-07-09T01:38:48;23;23;
72329;PMS5003;69154;52.076;5.110;2023-07-09T01:41:13;25;25;
72329;PMS5003;69154;52.076;5.110;2023-07-09T01:43:39;23;22;
72329;PMS5003;69154;52.076;5.110;2023-07-09T01:46:04;28;24;
72329;PMS5003;69154;52.076;5.110;2023-07-09T01:48:30;27;27;
72329;PMS5003;69154;52.076;5.110;2023-07-09T01:50:55;25;25;
72329;PMS5003;69154;52.076;5.110;2023-07-09T01:53:22;26;25;
72329;PMS5003;69154;52.076;5.110;2023-07-09T01:55:47;25;24;
72329;PMS5003;69154;52.076;5.110;2023-07-09T01:58:12;20;20;
72329;PMS5003;69154;52.076;5.110;2023-07-09T02:00:37;26;25;
72329;PMS5003;69154;52.076;5.110;2023-07-09T02:03:03;24;22;
72329;PMS5003;69154;52.076;5.110;2023-07-09T02:05:30;23;23;
72329;PMS5003;69154;52.076;5.110;2023-07-09T02:07:53;32;31;
72329;PMS5003;69154;52.076;5.110;2023-07-09T02:10:19;26;26;
72329;PMS5003;69154;52.076;5.110;2023-07-09T02:12:45;25;25;
72329;PMS5003;69154;52.076;5.110;2023-07-09T02:15:10;27;27;
72329;PMS5003;69154;52.076;5.110;2023-07-09T02:17:35;30;28;
72329;PMS5003;69154;52.076;5.110;2023-07-09T02:20:00;31;30;
72329;PMS5003;69154;52.076;5.110;2023-07-09T02:22:26;33;32;
72329;PMS5003;69154;52.076;5.110;2023-07-09T02:24:51;31;29;
72329;PMS5003;69154;52.076;5.110;2023-07-09T02:27:17;34;32;
72329;PMS5003;69154;52.076;5.110;2023-07-09T02:29:42;33;32;
72329;PMS5003;69154;52.076;5.110;2023-07-09T02:32:07;32;31;
72329;PMS5003;69154;52.076;5.110;2023-07-09T02:34:32;33;32;
72329;PMS5003;69154;52.076;5.110;2023-07-09T02:36:58;30;29;
72329;PMS5003;69154;52.076;5.110;2023-07-09T02:39:24;34;33;
72329;PMS5003;69154;52.076;5.110;2023-07-09T02:41:49;35;33;
72329;PMS5003;69154;52.076;5.110;2023-07-09T02:44:14;32;32;
72329;PMS5003;69154;52.076;5.110;2023-07-09T02:46:40;32;31;
72329;PMS5003;69154;52.076;5.110;2023-07-09T02:49:05;37;35;
72329;PMS5003;69154;52.076;5.110;2023-07-09T02:51:30;30;30;
72329;PMS5003;69154;52.076;5.110;2023-07-09T02:53:56;35;34;
72329;PMS5003;69154;52.076;5.110;2023-07-09T02:56:21;36;34;
72329;PMS5003;69154;52.076;5.110;2023-07-09T02:58:46;33;32;
72329;PMS5003;69154;52.076;5.110;2023-07-09T03:01:12;33;32;
72329;PMS5003;69154;52.076;5.110;2023-07-09T03:03:38;38;37;
72329;PMS5003;69154;52.076;5.110;2023-07-09T03:06:03;38;36;
72329;PMS5003;69154;52.076;5.110;2023-07-09T03:08:28;36;36;
72329;PMS5003;69154;52.076;5.110;2023-07-09T03:10:53;32;32;
72329;PMS5003;69154;52.076;5.110;2023-07-09T03:13:19;31;31;
72329;PMS5003;69154;52.076;5.110;2023-07-09T03:15:53;33;32;
72329;PMS5003;69154;52.076;5.110;2023-07-09T03:18:11;35;35;
72329;PMS5003;69154;52.076;5.110;2023-07-09T03:20:36;30;30;
72329;PMS5003;69154;52.076;5.110;2023-07-09T03:23:01;37;37;
72329;PMS5003;69154;52.076;5.110;2023-07-09T03:25:26;39;38;
72329;PMS5003;69154;52.076;5.110;2023-07-09T03:27:52;41;40;
72329;PMS5003;69154;52.076;5.110;2023-07-09T03:30:18;41;38;
72329;PMS5003;69154;52.076;5.110;2023-07-09T03:32:43;39;38;
72329;PMS5003;69154;52.076;5.110;2023-07-09T03:35:08;33;33;
72329;PMS5003;69154;52.076;5.110;2023-07-09T03:37:34;38;34;
72329;PMS5003;69154;52.076;5.110;2023-07-09T03:39:59;34;33;
72329;PMS5003;69154;52.076;5.110;2023-07-09T03:42:24;39;37;
72329;PMS5003;69154;52.076;5.110;2023-07-09T03:44:50;37;36;
72329;PMS5003;69154;52.076;5.110;2023-07-09T03:47:16;37;36;
72329;PMS5003;69154;52.076;5.110;2023-07-09T03:49:41;36;35;
72329;PMS5003;69154;52.076;5.110;2023-07-09T03:52:07;38;37;
72329;PMS5003;69154;52.076;5.110;2023-07-09T03:54:32;34;34;
72329;PMS5003;69154;52.076;5.110;2023-07-09T03:56:57;36;36;
72329;PMS5003;69154;52.076;5.110;2023-07-09T03:59:23;33;33;
72329;PMS5003;69154;52.076;5.110;2023-07-09T04:01:49;30;29;
72329;PMS5003;69154;52.076;5.110;2023-07-09T04:04:14;37;36;
72329;PMS5003;69154;52.076;5.110;2023-07-09T04:06:40;34;34;
72329;PMS5003;69154;52.076;5.110;2023-07-09T04:09:05;40;38;
72329;PMS5003;69154;52.076;5.110;2023-07-09T04:11:31;35;34;
72329;PMS5003;69154;52.076;5.110;2023-07-09T04:13:56;40;38;
72329;PMS5003;69154;52.076;5.110;2023-07-09T04:16:22;36;34;
72329;PMS5003;69154;52.076;5.110;2023-07-09T04:18:47;37;35;
72329;PMS5003;69154;52.076;5.110;2023-07-09T04:21:12;35;35;
72329;PMS5003;69154;52.076;5.110;2023-07-09T04:23:38;34;33;
72329;PMS5003;69154;52.076;5.110;2023-07-09T04:26:04;33;31;
72329;PMS5003;69154;52.076;5.110;2023-07-09T04:28:30;35;34;
72329;PMS5003;69154;52.076;5.110;2023-07-09T04:30:55;36;35;
72329;PMS5003;69154;52.076;5.110;2023-07-09T04:33:20;38;38;
72329;PMS5003;69154;52.076;5.110;2023-07-09T04:35:46;34;33;
72329;PMS5003;69154;52.076;5.110;2023-07-09T04:38:11;32;31;
72329;PMS5003;69154;52.076;5.110;2023-07-09T04:40:37;32;31;
72329;PMS5003;69154;52.076;5.110;2023-07-09T04:43:02;32;32;
72329;PMS5003;69154;52.076;5.110;2023-07-09T04:45:28;39;37;
72329;PMS5003;69154;52.076;5.110;2023-07-09T04:47:53;43;40;
72329;PMS5003;69154;52.076;5.110;2023-07-09T04:50:19;37;35;
72329;PMS5003;69154;52.076;5.110;2023-07-09T04:52:44;30;30;
72329;PMS5003;69154;52.076;5.110;2023-07-09T04:55:11;37;35;
72329;PMS5003;69154;52.076;5.110;2023-07-09T04:57:35;36;36;
72329;PMS5003;69154;52.076;5.110;2023-07-09T05:00:01;43;43;
72329;PMS5003;69154;52.076;5.110;2023-07-09T05:02:26;28;28;
72329;PMS5003;69154;52.076;5.110;2023-07-09T05:04:52;35;34;
72329;PMS5003;69154;52.076;5.110;2023-07-09T05:07:17;35;34;
72329;PMS5003;69154;52.076;5.110;2023-07-09T05:09:43;34;33;
72329;PMS5003;69154;52.076;5.110;2023-07-09T05:12:08;37;37;
72329;PMS5003;69154;52.076;5.110;2023-07-09T05:14:33;33;32;
72329;PMS5003;69154;52.076;5.110;2023-07-09T05:16:59;31;31;
72329;PMS5003;69154;52.076;5.110;2023-07-09T05:19:24;38;36;
72329;PMS5003;69154;52.076;5.110;2023-07-09T05:21:50;31;31;
72329;PMS5003;69154;52.076;5.110;2023-07-09T05:24:16;38;38;
72329;PMS5003;69154;52.076;5.110;2023-07-09T05:26:41;38;37;
72329;PMS5003;69154;52.076;5.110;2023-07-09T05:29:06;40;39;
72329;PMS5003;69154;52.076;5.110;2023-07-09T05:31:32;37;37;
72329;PMS5003;69154;52.076;5.110;2023-07-09T05:33:58;42;42;
72329;PMS5003;69154;52.076;5.110;2023-07-09T05:36:22;38;37;
72329;PMS5003;69154;52.076;5.110;2023-07-09T05:38:47;32;31;
72329;PMS5003;69154;52.076;5.110;2023-07-09T05:41:13;39;37;
72329;PMS5003;69154;52.076;5.110;2023-07-09T05:43:38;37;36;
72329;PMS5003;69154;52.076;5.110;2023-07-09T05:46:04;37;36;
72329;PMS5003;69154;52.076;5.110;2023-07-09T05:48:30;42;39;
72329;PMS5003;69154;52.076;5.110;2023-07-09T05:50:55;36;35;
72329;PMS5003;69154;52.076;5.110;2023-07-09T05:53:21;30;29;
72329;PMS5003;69154;52.076;5.110;2023-07-09T05:55:46;36;35;
72329;PMS5003;69154;52.076;5.110;2023-07-09T05:58:12;33;33;
72329;PMS5003;69154;52.076;5.110;2023-07-09T06:00:37;34;34;
72329;PMS5003;69154;52.076;5.110;2023-07-09T06:03:02;34;32;
72329;PMS5003;69154;52.076;5.110;2023-07-09T06:05:28;33;32;
72329;PMS5003;69154;52.076;5.110;2023-07-09T06:07:54;30;30;
72329;PMS5003;69154;52.076;5.110;2023-07-09T06:10:19;29;28;
72329;PMS5003;69154;52.076;5.110;2023-07-09T06:12:45;31;31;
72329;PMS5003;69154;52.076;5.110;2023-07-09T06:15:10;33;32;
72329;PMS5003;69154;52.076;5.110;2023-07-09T06:17:35;34;31;
72329;PMS5003;69154;52.076;5.110;2023-07-09T06:20:00;32;30;
72329;PMS5003;69154;52.076;5.110;2023-07-09T06:22:26;31;30;
72329;PMS5003;69154;52.076;5.110;2023-07-09T06:24:52;32;32;
72329;PMS5003;69154;52.076;5.110;2023-07-09T06:27:17;28;28;
72329;PMS5003;69154;52.076;5.110;2023-07-09T06:29:43;28;27;
72329;PMS5003;69154;52.076;5.110;2023-07-09T06:32:08;41;39;
72329;PMS5003;69154;52.076;5.110;2023-07-09T06:34:34;31;30;
72329;PMS5003;69154;52.076;5.110;2023-07-09T06:37:01;40;39;
72329;PMS5003;69154;52.076;5.110;2023-07-09T06:39:25;29;27;
72329;PMS5003;69154;52.076;5.110;2023-07-09T06:41:51;30;27;
72329;PMS5003;69154;52.076;5.110;2023-07-09T06:44:17;35;31;
72329;PMS5003;69154;52.076;5.110;2023-07-09T06:46:41;30;29;
72329;PMS5003;69154;52.076;5.110;2023-07-09T06:49:07;36;34;
72329;PMS5003;69154;52.076;5.110;2023-07-09T06:51:32;35;31;
72329;PMS5003;69154;52.076;5.110;2023-07-09T06:53:57;36;35;
72329;PMS5003;69154;52.076;5.110;2023-07-09T06:56:23;33;32;
72329;PMS5003;69154;52.076;5.110;2023-07-09T06:58:48;35;34;
72329;PMS5003;69154;52.076;5.110;2023-07-09T07:01:13;32;31;
72329;PMS5003;69154;52.076;5.110;2023-07-09T07:03:39;30;30;
72329;PMS5003;69154;52.076;5.110;2023-07-09T07:06:04;39;37;
72329;PMS5003;69154;52.076;5.110;2023-07-09T07:08:30;45;41;
72329;PMS5003;69154;52.076;5.110;2023-07-09T07:10:56;41;39;
72329;PMS5003;69154;52.076;5.110;2023-07-09T07:13:21;36;35;
72329;PMS5003;69154;52.076;5.110;2023-07-09T07:15:48;33;33;
72329;PMS5003;69154;52.076;5.110;2023-07-09T07:18:12;28;28;
72329;PMS5003;69154;52.076;5.110;2023-07-09T07:20:37;29;29;
72329;PMS5003;69154;52.076;5.110;2023-07-09T07:23:03;28;28;
72329;PMS5003;69154;52.076;5.110;2023-07-09T07:25:29;35;33;
72329;PMS5003;69154;52.076;5.110;2023-07-09T07:27:55;32;32;
72329;PMS5003;69154;52.076;5.110;2023-07-09T07:30:19;28;27;
72329;PMS5003;69154;52.076;5.110;2023-07-09T07:32:46;35;34;
72329;PMS5003;69154;52.076;5.110;2023-07-09T07:35:11;39;38;
72329;PMS5003;69154;52.076;5.110;2023-07-09T07:37:36;33;33;
72329;PMS5003;69154;52.076;5.110;2023-07-09T07:40:02;31;30;
72329;PMS5003;69154;52.076;5.110;2023-07-09T07:42:27;37;37;
72329;PMS5003;69154;52.076;5.110;2023-07-09T07:44:53;32;31;
72329;PMS5003;69154;52.076;5.110;2023-07-09T07:47:18;31;31;
72329;PMS5003;69154;52.076;5.110;2023-07-09T07:49:44;32;31;
72329;PMS5003;69154;52.076;5.110;2023-07-09T07:52:09;32;30;
72329;PMS5003;69154;52.076;5.110;2023-07-09T07:54:35;42;39;
72329;PMS5003;69154;52.076;5.110;2023-07-09T07:57:00;36;34;
72329;PMS5003;69154;52.076;5.110;2023-07-09T07:59:25;39;38;
72329;PMS5003;69154;52.076;5.110;2023-07-09T08:01:51;45;44;
72329;PMS5003;69154;52.076;5.110;2023-07-09T08:04:16;48;45;
72329;PMS5003;69154;52.076;5.110;2023-07-09T08:06:41;45;42;
72329;PMS5003;69154;52.076;5.110;2023-07-09T08:09:07;50;48;
72329;PMS5003;69154;52.076;5.110;2023-07-09T08:11:32;45;43;
72329;PMS5003;69154;52.076;5.110;2023-07-09T08:13:58;50;49;
72329;PMS5003;69154;52.076;5.110;2023-07-09T08:16:24;45;45;
72329;PMS5003;69154;52.076;5.110;2023-07-09T08:18:49;39;37;
72329;PMS5003;69154;52.076;5.110;2023-07-09T08:21:14;49;47;
72329;PMS5003;69154;52.076;5.110;2023-07-09T08:23:40;44;44;
72329;PMS5003;69154;52.076;5.110;2023-07-09T08:26:05;39;38;
72329;PMS5003;69154;52.076;5.110;2023-07-09T08:28:30;39;37;
72329;PMS5003;69154;52.076;5.110;2023-07-09T08:30:56;42;42;
72329;PMS5003;69154;52.076;5.110;2023-07-09T08:33:21;41;40;
72329;PMS5003;69154;52.076;5.110;2023-07-09T08:35:48;38;36;
72329;PMS5003;69154;52.076;5.110;2023-07-09T08:38:13;46;46;
72329;PMS5003;69154;52.076;5.110;2023-07-09T08:40:38;42;41;
72329;PMS5003;69154;52.076;5.110;2023-07-09T08:43:05;51;49;
72329;PMS5003;69154;52.076;5.110;2023-07-09T08:45:32;50;49;
72329;PMS5003;69154;52.076;5.110;2023-07-09T08:47:57;42;42;
72329;PMS5003;69154;52.076;5.110;2023-07-09T08:50:20;42;40;
72329;PMS5003;69154;52.076;5.110;2023-07-09T08:52:46;47;46;
72329;PMS5003;69154;52.076;5.110;2023-07-09T08:55:11;40;39;
72329;PMS5003;69154;52.076;5.110;2023-07-09T08:57:37;38;37;
72329;PMS5003;69154;52.076;5.110;2023-07-09T09:00:02;41;41;
72329;PMS5003;69154;52.076;5.110;2023-07-09T09:02:31;38;36;
72329;PMS5003;69154;52.076;5.110;2023-07-09T09:04:53;29;29;
72329;PMS5003;69154;52.076;5.110;2023-07-09T09:07:23;38;37;
72329;PMS5003;69154;52.076;5.110;2023-07-09T09:09:46;36;36;
72329;PMS5003;69154;52.076;5.110;2023-07-09T09:12:12;36;35;
72329;PMS5003;69154;52.076;5.110;2023-07-09T09:14:36;37;37;
72329;PMS5003;69154;52.076;5.110;2023-07-09T09:17:02;35;35;
72329;PMS5003;69154;52.076;5.110;2023-07-09T09:19:27;34;34;
72329;PMS5003;69154;52.076;5.110;2023-07-09T09:21:54;33;32;
72329;PMS5003;69154;52.076;5.110;2023-07-09T09:24:19;36;35;
72329;PMS5003;69154;52.076;5.110;2023-07-09T09:26:43;39;38;
72329;PMS5003;69154;52.076;5.110;2023-07-09T09:29:10;37;35;
72329;PMS5003;69154;52.076;5.110;2023-07-09T09:31:34;36;36;
72329;PMS5003;69154;52.076;5.110;2023-07-09T09:34:00;37;35;
72329;PMS5003;69154;52.076;5.110;2023-07-09T09:36:26;38;37;
72329;PMS5003;69154;52.076;5.110;2023-07-09T09:38:51;37;35;
72329;PMS5003;69154;52.076;5.110;2023-07-09T09:41:17;38;38;
72329;PMS5003;69154;52.076;5.110;2023-07-09T09:43:42;41;38;
72329;PMS5003;69154;52.076;5.110;2023-07-09T09:46:07;35;35;
72329;PMS5003;69154;52.076;5.110;2023-07-09T09:48:33;33;32;
72329;PMS5003;69154;52.076;5.110;2023-07-09T09:50:59;37;36;
72329;PMS5003;69154;52.076;5.110;2023-07-09T09:53:25;39;38;
72329;PMS5003;69154;52.076;5.110;2023-07-09T09:55:50;40;40;
72329;PMS5003;69154;52.076;5.110;2023-07-09T09:58:15;33;32;
72329;PMS5003;69154;52.076;5.110;2023-07-09T10:00:40;36;36;
72329;PMS5003;69154;52.076;5.110;2023-07-09T10:03:05;37;35;
72329;PMS5003;69154;52.076;5.110;2023-07-09T10:05:33;33;32;
72329;PMS5003;69154;52.076;5.110;2023-07-09T10:07:57;36;35;
72329;PMS5003;69154;52.076;5.110;2023-07-09T10:10:22;35;34;
72329;PMS5003;69154;52.076;5.110;2023-07-09T10:12:48;36;36;
72329;PMS5003;69154;52.076;5.110;2023-07-09T10:15:15;32;32;
72329;PMS5003;69154;52.076;5.110;2023-07-09T10:17:38;35;34;
72329;PMS5003;69154;52.076;5.110;2023-07-09T10:20:03;38;35;
72329;PMS5003;69154;52.076;5.110;2023-07-09T10:22:34;34;34;
72329;PMS5003;69154;52.076;5.110;2023-07-09T10:24:55;39;38;
72329;PMS5003;69154;52.076;5.110;2023-07-09T10:27:19;38;37;
72329;PMS5003;69154;52.076;5.110;2023-07-09T10:29:51;33;33;
72329;PMS5003;69154;52.076;5.110;2023-07-09T10:32:13;38;37;
72329;PMS5003;69154;52.076;5.110;2023-07-09T10:34:38;37;36;
72329;PMS5003;69154;52.076;5.110;2023-07-09T10:37:06;35;35;
72329;PMS5003;69154;52.076;5.110;2023-07-09T10:39:26;35;33;
72329;PMS5003;69154;52.076;5.110;2023-07-09T10:41:51;32;31;
72329;PMS5003;69154;52.076;5.110;2023-07-09T10:44:16;31;30;
72329;PMS5003;69154;52.076;5.110;2023-07-09T10:46:42;31;30;
72329;PMS5003;69154;52.076;5.110;2023-07-09T10:49:07;29;29;
72329;PMS5003;69154;52.076;5.110;2023-07-09T10:51:33;34;34;
72329;PMS5003;69154;52.076;5.110;2023-07-09T10:54:00;33;32;
72329;PMS5003;69154;52.076;5.110;2023-07-09T10:56:24;30;29;
72329;PMS5003;69154;52.076;5.110;2023-07-09T10:58:52;34;34;
72329;PMS5003;69154;52.076;5.110;2023-07-09T11:01:14;26;26;
72329;PMS5003;69154;52.076;5.110;2023-07-09T11:03:40;27;26;
72329;PMS5003;69154;52.076;5.110;2023-07-09T11:06:08;29;29;
72329;PMS5003;69154;52.076;5.110;2023-07-09T11:08:31;32;31;
72329;PMS5003;69154;52.076;5.110;2023-07-09T11:10:56;28;27;
72329;PMS5003;69154;52.076;5.110;2023-07-09T11:13:23;28;27;
72329;PMS5003;69154;52.076;5.110;2023-07-09T11:15:48;27;27;
72329;PMS5003;69154;52.076;5.110;2023-07-09T11:18:13;31;30;
72329;PMS5003;69154;52.076;5.110;2023-07-09T11:20:41;25;24;
72329;PMS5003;69154;52.076;5.110;2023-07-09T11:23:05;28;27;
72329;PMS5003;69154;52.076;5.110;2023-07-09T11:25:31;27;27;
72329;PMS5003;69154;52.076;5.110;2023-07-09T11:28:01;33;33;
72329;PMS5003;69154;52.076;5.110;2023-07-09T11:30:21;30;29;
72329;PMS5003;69154;52.076;5.110;2023-07-09T11:32:45;27;26;
72329;PMS5003;69154;52.076;5.110;2023-07-09T11:35:20;29;29;
72329;PMS5003;69154;52.076;5.110;2023-07-09T11:37:44;25;25;
72329;PMS5003;69154;52.076;5.110;2023-07-09T11:40:06;34;34;
72329;PMS5003;69154;52.076;5.110;2023-07-09T11:42:29;35;35;
72329;PMS5003;69154;52.076;5.110;2023-07-09T11:44:54;30;30;
72329;PMS5003;69154;52.076;5.110;2023-07-09T11:47:19;32;31;
72329;PMS5003;69154;52.076;5.110;2023-07-09T11:49:46;32;30;
72329;PMS5003;69154;52.076;5.110;2023-07-09T11:52:09;30;29;
72329;PMS5003;69154;52.076;5.110;2023-07-09T11:54:36;32;32;
72329;PMS5003;69154;52.076;5.110;2023-07-09T11:57:01;31;30;
72329;PMS5003;69154;52.076;5.110;2023-07-09T11:59:26;25;24;
72329;PMS5003;69154;52.076;5.110;2023-07-09T12:01:52;24;23;
72329;PMS5003;69154;52.076;5.110;2023-07-09T12:04:18;22;22;
72329;PMS5003;69154;52.076;5.110;2023-07-09T12:06:42;16;16;
72329;PMS5003;69154;52.076;5.110;2023-07-09T12:09:08;17;17;
72329;PMS5003;69154;52.076;5.110;2023-07-09T12:11:33;17;17;
72329;PMS5003;69154;52.076;5.110;2023-07-09T12:14:01;18;17;
72329;PMS5003;69154;52.076;5.110;2023-07-09T12:16:25;18;17;
72329;PMS5003;69154;52.076;5.110;2023-07-09T12:18:49;22;20;
72329;PMS5003;69154;52.076;5.110;2023-07-09T12:21:14;18;18;
72329;PMS5003;69154;52.076;5.110;2023-07-09T12:23:39;15;14;
72329;PMS5003;69154;52.076;5.110;2023-07-09T12:26:06;17;15;
72329;PMS5003;69154;52.076;5.110;2023-07-09T12:28:30;15;15;
72329;PMS5003;69154;52.076;5.110;2023-07-09T12:30:55;15;15;
72329;PMS5003;69154;52.076;5.110;2023-07-09T12:33:21;20;20;
72329;PMS5003;69154;52.076;5.110;2023-07-09T12:35:46;17;16;
72329;PMS5003;69154;52.076;5.110;2023-07-09T12:38:16;14;14;
72329;PMS5003;69154;52.076;5.110;2023-07-09T12:40:37;15;14;
72329;PMS5003;69154;52.076;5.110;2023-07-09T12:43:02;17;17;
72329;PMS5003;69154;52.076;5.110;2023-07-09T12:45:27;22;21;
72329;PMS5003;69154;52.076;5.110;2023-07-09T12:47:52;19;19;
72329;PMS5003;69154;52.076;5.110;2023-07-09T12:50:19;21;21;
72329;PMS5003;69154;52.076;5.110;2023-07-09T12:52:45;18;18;
72329;PMS5003;69154;52.076;5.110;2023-07-09T12:55:18;24;21;
72329;PMS5003;69154;52.076;5.110;2023-07-09T12:57:33;20;18;
72329;PMS5003;69154;52.076;5.110;2023-07-09T12:59:59;17;17;
72329;PMS5003;69154;52.076;5.110;2023-07-09T13:02:25;16;15;
72329;PMS5003;69154;52.076;5.110;2023-07-09T13:04:50;18;17;
72329;PMS5003;69154;52.076;5.110;2023-07-09T13:07:25;18;17;
72329;PMS5003;69154;52.076;5.110;2023-07-09T13:09:47;18;17;
72329;PMS5003;69154;52.076;5.110;2023-07-09T13:12:05;19;18;
72329;PMS5003;69154;52.076;5.110;2023-07-09T13:14:30;10;9;
72329;PMS5003;69154;52.076;5.110;2023-07-09T13:17:01;9;9;
72329;PMS5003;69154;52.076;5.110;2023-07-09T13:19:21;8;8;
72329;PMS5003;69154;52.076;5.110;2023-07-09T13:21:46;9;9;
72329;PMS5003;69154;52.076;5.110;2023-07-09T13:24:14;7;7;
72329;PMS5003;69154;52.076;5.110;2023-07-09T13:26:42;11;11;
72329;PMS5003;69154;52.076;5.110;2023-07-09T13:29:03;10;10;
72329;PMS5003;69154;52.076;5.110;2023-07-09T13:31:28;11;10;
72329;PMS5003;69154;52.076;5.110;2023-07-09T13:33:54;10;10;
72329;PMS5003;69154;52.076;5.110;2023-07-09T13:36:19;13;13;
72329;PMS5003;69154;52.076;5.110;2023-07-09T13:38:44;12;12;
72329;PMS5003;69154;52.076;5.110;2023-07-09T13:41:11;13;12;
72329;PMS5003;69154;52.076;5.110;2023-07-09T13:43:36;12;12;
72329;PMS5003;69154;52.076;5.110;2023-07-09T13:46:02;12;12;
72329;PMS5003;69154;52.076;5.110;2023-07-09T13:48:26;12;12;
72329;PMS5003;69154;52.076;5.110;2023-07-09T13:50:53;14;14;
72329;PMS5003;69154;52.076;5.110;2023-07-09T13:53:18;14;14;
72329;PMS5003;69154;52.076;5.110;2023-07-09T13:55:43;11;11;
72329;PMS5003;69154;52.076;5.110;2023-07-09T13:58:09;13;12;
72329;PMS5003;69154;52.076;5.110;2023-07-09T14:00:34;14;14;
72329;PMS5003;69154;52.076;5.110;2023-07-09T14:02:59;10;10;
72329;PMS5003;69154;52.076;5.110;2023-07-09T14:05:25;11;11;
72329;PMS5003;69154;52.076;5.110;2023-07-09T14:07:50;10;10;
72329;PMS5003;69154;52.076;5.110;2023-07-09T14:10:16;14;12;
72329;PMS5003;69154;52.076;5.110;2023-07-09T14:12:42;14;13;
72329;PMS5003;69154;52.076;5.110;2023-07-09T14:15:09;10;10;
72329;PMS5003;69154;52.076;5.110;2023-07-09T14:17:32;10;10;
72329;PMS5003;69154;52.076;5.110;2023-07-09T14:19:58;12;11;
72329;PMS5003;69154;52.076;5.110;2023-07-09T14:22:25;11;11;
72329;PMS5003;69154;52.076;5.110;2023-07-09T14:24:49;13;11;
72329;PMS5003;69154;52.076;5.110;2023-07-09T14:27:14;14;12;
72329;PMS5003;69154;52.076;5.110;2023-07-09T14:29:40;12;12;
72329;PMS5003;69154;52.076;5.110;2023-07-09T14:32:07;14;13;
72329;PMS5003;69154;52.076;5.110;2023-07-09T14:34:32;15;14;
72329;PMS5003;69154;52.076;5.110;2023-07-09T14:36:57;14;14;
72329;PMS5003;69154;52.076;5.110;2023-07-09T14:39:23;17;17;
72329;PMS5003;69154;52.076;5.110;2023-07-09T14:41:48;17;17;
72329;PMS5003;69154;52.076;5.110;2023-07-09T14:44:20;21;19;
72329;PMS5003;69154;52.076;5.110;2023-07-09T14:46:38;25;24;
72329;PMS5003;69154;52.076;5.110;2023-07-09T14:49:04;22;21;
72329;PMS5003;69154;52.076;5.110;2023-07-09T14:51:29;27;26;
72329;PMS5003;69154;52.076;5.110;2023-07-09T14:53:54;29;28;
72329;PMS5003;69154;52.076;5.110;2023-07-09T14:56:20;39;38;
72329;PMS5003;69154;52.076;5.110;2023-07-09T14:58:45;33;32;
72329;PMS5003;69154;52.076;5.110;2023-07-09T15:01:11;25;25;
72329;PMS5003;69154;52.076;5.110;2023-07-09T15:03:36;25;24;
72329;PMS5003;69154;52.076;5.110;2023-07-09T15:06:02;28;26;
72329;PMS5003;69154;52.076;5.110;2023-07-09T15:08:28;25;24;
72329;PMS5003;69154;52.076;5.110;2023-07-09T15:10:53;23;21;
72329;PMS5003;69154;52.076;5.110;2023-07-09T15:13:19;27;25;
72329;PMS5003;69154;52.076;5.110;2023-07-09T15:15:44;25;24;
72329;PMS5003;69154;52.076;5.110;2023-07-09T15:18:11;25;24;
72329;PMS5003;69154;52.076;5.110;2023-07-09T15:20:35;24;24;
72329;PMS5003;69154;52.076;5.110;2023-07-09T15:23:00;24;23;
72329;PMS5003;69154;52.076;5.110;2023-07-09T15:25:26;18;17;
72329;PMS5003;69154;52.076;5.110;2023-07-09T15:27:51;22;19;
72329;PMS5003;69154;52.076;5.110;2023-07-09T15:30:18;16;16;
72329;PMS5003;69154;52.076;5.110;2023-07-09T15:32:43;18;17;
72329;PMS5003;69154;52.076;5.110;2023-07-09T15:35:07;16;15;
72329;PMS5003;69154;52.076;5.110;2023-07-09T15:37:33;13;12;
72329;PMS5003;69154;52.076;5.110;2023-07-09T15:39:59;15;14;
72329;PMS5003;69154;52.076;5.110;2023-07-09T15:42:24;16;16;
72329;PMS5003;69154;52.076;5.110;2023-07-09T15:44:50;14;14;
72329;PMS5003;69154;52.076;5.110;2023-07-09T15:47:16;13;12;
72329;PMS5003;69154;52.076;5.110;2023-07-09T15:49:41;12;12;
72329;PMS5003;69154;52.076;5.110;2023-07-09T15:52:07;12;12;
72329;PMS5003;69154;52.076;5.110;2023-07-09T15:54:33;12;12;
72329;PMS5003;69154;52.076;5.110;2023-07-09T15:56:58;13;12;
72329;PMS5003;69154;52.076;5.110;2023-07-09T15:59:25;11;11;
72329;PMS5003;69154;52.076;5.110;2023-07-09T16:01:50;12;11;
72329;PMS5003;69154;52.076;5.110;2023-07-09T16:04:15;10;10;
72329;PMS5003;69154;52.076;5.110;2023-07-09T16:06:41;12;12;